sensor_id;sensor_type;location;lat;lon;timestamp;P1;durP1;ratioP1;P2;durP2;ratioP2
27740;SDS011;15134;48.768;9.184;2023-10-08T00:00:25;996.50;;;904.35;;
27740;SDS011;15134;48.768;9.184;2023-10-08T00:03:10;999.00;;;907.00;;
27740;SDS011;15134;48.768;9.184;2023-10-08T00:05:37;998.35;;;906.53;;
27740;SDS011;15134;48.768;9.184;2023-10-08T00:08:04;999.47;;;907.63;;
27740;SDS011;15134;48.768;9.184;2023-10-08T00:10:34;997.15;;;905.35;;
27740;SDS011;15134;48.768;9.184;2023-10-08T00:13:01;1004.13;;;911.60;;
27740;SDS011;15134;48.768;9.184;2023-10-08T00:15:28;1001.80;;;910.10;;
27740;SDS011;15134;48.768;9.184;2023-10-08T00:17:53;1001.33;;;909.13;;
27740;SDS011;15134;48.768;9.184;2023-10-08T00:20:20;1002.80;;;910.83;;
27740;SDS011;15134;48.768;9.184;2023-10-08T00:22:50;1000.70;;;908.80;;
27740;SDS011;15134;48.768;9.184;2023-10-08T00:25:20;1004.23;;;911.47;;
27740;SDS011;15134;48.768;9.184;2023-10-08T00:27:45;1003.07;;;910.57;;
27740;SDS011;15134;48.768;9.184;2023-10-08T00:30:16;999.33;;;907.20;;
27740;SDS011;15134;48.768;9.184;2023-10-08T00:32:44;1001.45;;;909.10;;
27740;SDS011;15134;48.768;9.184;2023-10-08T00:35:10;999.90;;;907.38;;
27740;SDS011;15134;48.768;9.184;2023-10-08T00:37:41;1004.45;;;912.25;;
27740;SDS011;15134;48.768;9.184;2023-10-08T00:40:07;1003.17;;;910.45;;
27740;SDS011;15134;48.768;9.184;2023-10-08T00:42:37;997.42;;;904.83;;
27740;SDS011;15134;48.768;9.184;2023-10-08T00:45:10;997.10;;;905.08;;
27740;SDS011;15134;48.768;9.184;2023-10-08T00:47:39;995.83;;;903.58;;
27740;SDS011;15134;48.768;9.184;2023-10-08T00:50:11;997.45;;;905.13;;
27740;SDS011;15134;48.768;9.184;2023-10-08T00:52:47;998.83;;;907.22;;
27740;SDS011;15134;48.768;9.184;2023-10-08T00:55:25;997.17;;;905.42;;
27740;SDS011;15134;48.768;9.184;2023-10-08T00:57:56;988.33;;;896.63;;
27740;SDS011;15134;48.768;9.184;2023-10-08T01:00:24;993.30;;;900.88;;
27740;SDS011;15134;48.768;9.184;2023-10-08T01:02:58;996.97;;;905.00;;
27740;SDS011;15134;48.768;9.184;2023-10-08T01:05:27;1000.30;;;908.50;;
27740;SDS011;15134;48.768;9.184;2023-10-08T01:08:11;997.90;;;905.90;;
27740;SDS011;15134;48.768;9.184;2023-10-08T01:10:43;994.58;;;902.42;;
27740;SDS011;15134;48.768;9.184;2023-10-08T01:13:12;996.03;;;903.63;;
27740;SDS011;15134;48.768;9.184;2023-10-08T01:15:44;998.75;;;906.40;;
27740;SDS011;15134;48.768;9.184;2023-10-08T01:18:13;994.25;;;901.97;;
27740;SDS011;15134;48.768;9.184;2023-10-08T01:20:44;992.43;;;900.07;;
27740;SDS011;15134;48.768;9.184;2023-10-08T01:23:12;991.08;;;898.58;;
27740;SDS011;15134;48.768;9.184;2023-10-08T01:25:42;995.90;;;903.47;;
27740;SDS011;15134;48.768;9.184;2023-10-08T01:28:09;987.97;;;895.85;;
27740;SDS011;15134;48.768;9.184;2023-10-08T01:30:43;990.33;;;897.83;;
27740;SDS011;15134;48.768;9.184;2023-10-08T01:33:12;990.13;;;898.22;;
27740;SDS011;15134;48.768;9.184;2023-10-08T01:35:41;987.60;;;895.40;;
27740;SDS011;15134;48.768;9.184;2023-10-08T01:38:07;990.67;;;898.95;;
27740;SDS011;15134;48.768;9.184;2023-10-08T01:40:38;985.80;;;894.13;;
27740;SDS011;15134;48.768;9.184;2023-10-08T01:43:07;989.00;;;896.90;;
27740;SDS011;15134;48.768;9.184;2023-10-08T01:45:37;986.55;;;896.10;;
27740;SDS011;15134;48.768;9.184;2023-10-08T01:48:09;991.23;;;901.10;;
27740;SDS011;15134;48.768;9.184;2023-10-08T01:50:38;983.97;;;894.50;;
27740;SDS011;15134;48.768;9.184;2023-10-08T01:53:04;991.17;;;901.00;;
27740;SDS011;15134;48.768;9.184;2023-10-08T01:55:35;992.55;;;902.65;;
27740;SDS011;15134;48.768;9.184;2023-10-08T01:58:14;988.97;;;899.27;;
27740;SDS011;15134;48.768;9.184;2023-10-08T02:00:42;991.75;;;901.47;;
27740;SDS011;15134;48.768;9.184;2023-10-08T02:03:12;978.92;;;889.08;;
27740;SDS011;15134;48.768;9.184;2023-10-08T02:05:43;992.77;;;902.23;;
27740;SDS011;15134;48.768;9.184;2023-10-08T02:08:10;988.30;;;897.83;;
27740;SDS011;15134;48.768;9.184;2023-10-08T02:10:38;987.38;;;896.28;;
27740;SDS011;15134;48.768;9.184;2023-10-08T02:13:06;985.58;;;895.38;;
27740;SDS011;15134;48.768;9.184;2023-10-08T02:15:34;985.20;;;895.17;;
27740;SDS011;15134;48.768;9.184;2023-10-08T02:18:06;986.00;;;895.95;;
27740;SDS011;15134;48.768;9.184;2023-10-08T02:20:32;983.77;;;893.87;;
27740;SDS011;15134;48.768;9.184;2023-10-08T02:22:58;987.45;;;897.15;;
27740;SDS011;15134;48.768;9.184;2023-10-08T02:25:25;986.97;;;896.78;;
27740;SDS011;15134;48.768;9.184;2023-10-08T02:27:52;990.90;;;900.47;;
27740;SDS011;15134;48.768;9.184;2023-10-08T02:30:18;988.10;;;897.83;;
27740;SDS011;15134;48.768;9.184;2023-10-08T02:32:44;988.03;;;897.70;;
27740;SDS011;15134;48.768;9.184;2023-10-08T02:35:11;977.30;;;886.50;;
27740;SDS011;15134;48.768;9.184;2023-10-08T02:37:38;985.03;;;894.47;;
27740;SDS011;15134;48.768;9.184;2023-10-08T02:40:08;984.33;;;893.40;;
27740;SDS011;15134;48.768;9.184;2023-10-08T02:42:44;983.88;;;892.63;;
27740;SDS011;15134;48.768;9.184;2023-10-08T02:45:14;982.50;;;891.72;;
27740;SDS011;15134;48.768;9.184;2023-10-08T02:47:44;981.63;;;891.05;;
27740;SDS011;15134;48.768;9.184;2023-10-08T02:50:10;979.25;;;888.67;;
27740;SDS011;15134;48.768;9.184;2023-10-08T02:52:37;983.33;;;892.55;;
27740;SDS011;15134;48.768;9.184;2023-10-08T02:55:03;985.10;;;894.10;;
27740;SDS011;15134;48.768;9.184;2023-10-08T02:57:30;985.22;;;894.22;;
27740;SDS011;15134;48.768;9.184;2023-10-08T02:59:57;977.80;;;887.25;;
27740;SDS011;15134;48.768;9.184;2023-10-08T03:02:23;976.08;;;885.58;;
27740;SDS011;15134;48.768;9.184;2023-10-08T03:04:51;979.40;;;888.77;;
27740;SDS011;15134;48.768;9.184;2023-10-08T03:07:18;978.47;;;887.67;;
27740;SDS011;15134;48.768;9.184;2023-10-08T03:09:49;974.85;;;884.35;;
27740;SDS011;15134;48.768;9.184;2023-10-08T03:12:16;982.73;;;892.00;;
27740;SDS011;15134;48.768;9.184;2023-10-08T03:14:43;977.83;;;886.88;;
27740;SDS011;15134;48.768;9.184;2023-10-08T03:17:27;976.72;;;886.05;;
27740;SDS011;15134;48.768;9.184;2023-10-08T03:19:54;971.25;;;880.38;;
27740;SDS011;15134;48.768;9.184;2023-10-08T03:22:27;969.60;;;879.20;;
27740;SDS011;15134;48.768;9.184;2023-10-08T03:24:59;974.28;;;883.35;;
27740;SDS011;15134;48.768;9.184;2023-10-08T03:27:41;972.22;;;881.58;;
27740;SDS011;15134;48.768;9.184;2023-10-08T03:30:07;974.03;;;883.15;;
27740;SDS011;15134;48.768;9.184;2023-10-08T03:32:42;978.38;;;886.83;;
27740;SDS011;15134;48.768;9.184;2023-10-08T03:35:16;963.10;;;872.33;;
27740;SDS011;15134;48.768;9.184;2023-10-08T03:37:52;967.45;;;876.65;;
27740;SDS011;15134;48.768;9.184;2023-10-08T03:40:19;971.92;;;880.83;;
27740;SDS011;15134;48.768;9.184;2023-10-08T03:42:55;967.25;;;875.75;;
27740;SDS011;15134;48.768;9.184;2023-10-08T03:45:21;971.20;;;879.95;;
27740;SDS011;15134;48.768;9.184;2023-10-08T03:48:05;961.85;;;871.33;;
27740;SDS011;15134;48.768;9.184;2023-10-08T03:50:33;964.83;;;873.60;;
27740;SDS011;15134;48.768;9.184;2023-10-08T03:53:06;965.42;;;874.65;;
27740;SDS011;15134;48.768;9.184;2023-10-08T03:55:40;965.42;;;875.10;;
27740;SDS011;15134;48.768;9.184;2023-10-08T03:58:06;970.88;;;879.80;;
27740;SDS011;15134;48.768;9.184;2023-10-08T04:00:38;967.67;;;876.73;;
27740;SDS011;15134;48.768;9.184;2023-10-08T04:03:07;969.83;;;879.20;;
27740;SDS011;15134;48.768;9.184;2023-10-08T04:05:36;967.78;;;877.00;;
27740;SDS011;15134;48.768;9.184;2023-10-08T04:08:17;967.83;;;876.40;;
27740;SDS011;15134;48.768;9.184;2023-10-08T04:10:45;969.07;;;877.73;;
27740;SDS011;15134;48.768;9.184;2023-10-08T04:13:10;966.87;;;876.13;;
27740;SDS011;15134;48.768;9.184;2023-10-08T04:15:37;963.88;;;872.88;;
27740;SDS011;15134;48.768;9.184;2023-10-08T04:18:09;964.42;;;873.80;;
27740;SDS011;15134;48.768;9.184;2023-10-08T04:20:36;964.38;;;873.13;;
27740;SDS011;15134;48.768;9.184;2023-10-08T04:23:05;964.57;;;873.77;;
27740;SDS011;15134;48.768;9.184;2023-10-08T04:25:52;963.10;;;872.40;;
27740;SDS011;15134;48.768;9.184;2023-10-08T04:28:19;958.58;;;867.92;;
27740;SDS011;15134;48.768;9.184;2023-10-08T04:30:46;972.28;;;880.92;;
27740;SDS011;15134;48.768;9.184;2023-10-08T04:33:15;965.10;;;874.25;;
27740;SDS011;15134;48.768;9.184;2023-10-08T04:35:42;970.35;;;878.85;;
27740;SDS011;15134;48.768;9.184;2023-10-08T04:38:21;969.20;;;878.40;;
27740;SDS011;15134;48.768;9.184;2023-10-08T04:40:48;961.17;;;870.17;;
27740;SDS011;15134;48.768;9.184;2023-10-08T04:43:23;961.00;;;870.33;;
27740;SDS011;15134;48.768;9.184;2023-10-08T04:45:58;964.90;;;874.60;;
27740;SDS011;15134;48.768;9.184;2023-10-08T04:49:03;960.60;;;870.47;;
27740;SDS011;15134;48.768;9.184;2023-10-08T04:51:32;966.30;;;875.87;;
27740;SDS011;15134;48.768;9.184;2023-10-08T04:54:09;964.58;;;873.88;;
27740;SDS011;15134;48.768;9.184;2023-10-08T04:56:41;965.22;;;874.85;;
27740;SDS011;15134;48.768;9.184;2023-10-08T04:59:07;968.47;;;877.92;;
27740;SDS011;15134;48.768;9.184;2023-10-08T05:01:36;967.17;;;876.00;;
27740;SDS011;15134;48.768;9.184;2023-10-08T05:04:34;966.95;;;876.15;;
27740;SDS011;15134;48.768;9.184;2023-10-08T05:07:12;965.75;;;874.55;;
27740;SDS011;15134;48.768;9.184;2023-10-08T05:09:57;965.70;;;875.00;;
27740;SDS011;15134;48.768;9.184;2023-10-08T05:12:28;966.03;;;875.33;;
27740;SDS011;15134;48.768;9.184;2023-10-08T05:14:57;967.65;;;876.85;;
27740;SDS011;15134;48.768;9.184;2023-10-08T05:17:42;963.42;;;872.85;;
27740;SDS011;15134;48.768;9.184;2023-10-08T05:20:17;967.22;;;876.28;;
27740;SDS011;15134;48.768;9.184;2023-10-08T05:23:12;967.15;;;877.25;;
27740;SDS011;15134;48.768;9.184;2023-10-08T05:26:02;965.30;;;875.63;;
27740;SDS011;15134;48.768;9.184;2023-10-08T05:28:31;962.15;;;873.58;;
27740;SDS011;15134;48.768;9.184;2023-10-08T05:31:07;973.10;;;883.20;;
27740;SDS011;15134;48.768;9.184;2023-10-08T05:33:56;967.53;;;877.90;;
27740;SDS011;15134;48.768;9.184;2023-10-08T05:36:49;967.85;;;877.70;;
27740;SDS011;15134;48.768;9.184;2023-10-08T05:39:30;962.65;;;872.40;;
27740;SDS011;15134;48.768;9.184;2023-10-08T05:42:08;968.40;;;877.47;;
27740;SDS011;15134;48.768;9.184;2023-10-08T05:44:57;963.60;;;873.13;;
27740;SDS011;15134;48.768;9.184;2023-10-08T05:47:35;964.63;;;873.40;;
27740;SDS011;15134;48.768;9.184;2023-10-08T05:50:02;965.70;;;874.83;;
27740;SDS011;15134;48.768;9.184;2023-10-08T05:52:41;965.85;;;875.30;;
27740;SDS011;15134;48.768;9.184;2023-10-08T05:55:30;966.03;;;876.50;;
27740;SDS011;15134;48.768;9.184;2023-10-08T05:58:05;966.97;;;877.10;;
27740;SDS011;15134;48.768;9.184;2023-10-08T06:00:44;970.50;;;880.42;;
27740;SDS011;15134;48.768;9.184;2023-10-08T06:03:14;965.58;;;875.55;;
27740;SDS011;15134;48.768;9.184;2023-10-08T06:05:59;965.58;;;876.63;;
27740;SDS011;15134;48.768;9.184;2023-10-08T06:08:38;967.80;;;877.55;;
27740;SDS011;15134;48.768;9.184;2023-10-08T06:11:22;967.33;;;878.58;;
27740;SDS011;15134;48.768;9.184;2023-10-08T06:14:07;962.88;;;874.05;;
27740;SDS011;15134;48.768;9.184;2023-10-08T06:16:44;968.33;;;879.03;;
27740;SDS011;15134;48.768;9.184;2023-10-08T06:19:27;968.92;;;879.28;;
27740;SDS011;15134;48.768;9.184;2023-10-08T06:21:53;972.28;;;882.28;;
27740;SDS011;15134;48.768;9.184;2023-10-08T06:24:19;969.47;;;880.17;;
27740;SDS011;15134;48.768;9.184;2023-10-08T06:26:45;969.58;;;880.67;;
27740;SDS011;15134;48.768;9.184;2023-10-08T06:29:14;970.53;;;881.60;;
27740;SDS011;15134;48.768;9.184;2023-10-08T06:31:46;963.03;;;874.70;;
27740;SDS011;15134;48.768;9.184;2023-10-08T06:34:17;969.17;;;880.00;;
27740;SDS011;15134;48.768;9.184;2023-10-08T06:36:47;975.17;;;886.45;;
27740;SDS011;15134;48.768;9.184;2023-10-08T06:39:20;973.38;;;883.75;;
27740;SDS011;15134;48.768;9.184;2023-10-08T06:41:59;971.53;;;883.45;;
27740;SDS011;15134;48.768;9.184;2023-10-08T06:44:28;971.85;;;883.85;;
27740;SDS011;15134;48.768;9.184;2023-10-08T06:46:54;973.07;;;883.70;;
27740;SDS011;15134;48.768;9.184;2023-10-08T06:49:21;976.35;;;887.47;;
27740;SDS011;15134;48.768;9.184;2023-10-08T06:51:53;980.78;;;891.78;;
27740;SDS011;15134;48.768;9.184;2023-10-08T06:54:20;979.92;;;890.28;;
27740;SDS011;15134;48.768;9.184;2023-10-08T06:56:47;979.38;;;889.72;;
27740;SDS011;15134;48.768;9.184;2023-10-08T06:59:17;982.22;;;893.03;;
27740;SDS011;15134;48.768;9.184;2023-10-08T07:01:43;983.60;;;894.42;;
27740;SDS011;15134;48.768;9.184;2023-10-08T07:04:12;983.08;;;894.00;;
27740;SDS011;15134;48.768;9.184;2023-10-08T07:06:42;986.20;;;896.75;;
27740;SDS011;15134;48.768;9.184;2023-10-08T07:09:09;985.20;;;895.30;;
27740;SDS011;15134;48.768;9.184;2023-10-08T07:11:56;983.92;;;894.47;;
27740;SDS011;15134;48.768;9.184;2023-10-08T07:16:53;983.55;;;893.50;;
27740;SDS011;15134;48.768;9.184;2023-10-08T07:19:20;982.85;;;893.33;;
27740;SDS011;15134;48.768;9.184;2023-10-08T07:21:49;991.28;;;901.38;;
27740;SDS011;15134;48.768;9.184;2023-10-08T07:24:19;994.20;;;905.03;;
27740;SDS011;15134;48.768;9.184;2023-10-08T07:26:47;989.13;;;899.60;;
27740;SDS011;15134;48.768;9.184;2023-10-08T07:29:15;997.13;;;907.75;;
27740;SDS011;15134;48.768;9.184;2023-10-08T07:31:44;1003.47;;;914.08;;
27740;SDS011;15134;48.768;9.184;2023-10-08T07:34:16;1015.80;;;926.33;;
27740;SDS011;15134;48.768;9.184;2023-10-08T07:36:47;1012.97;;;923.97;;
27740;SDS011;15134;48.768;9.184;2023-10-08T07:39:17;1022.20;;;932.63;;
27740;SDS011;15134;48.768;9.184;2023-10-08T07:41:57;1024.57;;;934.63;;
27740;SDS011;15134;48.768;9.184;2023-10-08T07:44:24;1030.72;;;941.15;;
27740;SDS011;15134;48.768;9.184;2023-10-08T07:46:53;1031.68;;;940.95;;
27740;SDS011;15134;48.768;9.184;2023-10-08T07:49:20;1029.85;;;939.95;;
27740;SDS011;15134;48.768;9.184;2023-10-08T07:51:48;1030.95;;;941.00;;
27740;SDS011;15134;48.768;9.184;2023-10-08T07:54:18;1035.15;;;945.22;;
27740;SDS011;15134;48.768;9.184;2023-10-08T07:56:50;1038.10;;;947.70;;
27740;SDS011;15134;48.768;9.184;2023-10-08T07:59:17;1035.25;;;945.45;;
27740;SDS011;15134;48.768;9.184;2023-10-08T08:01:43;1033.00;;;943.25;;
27740;SDS011;15134;48.768;9.184;2023-10-08T08:04:10;1041.07;;;951.43;;
27740;SDS011;15134;48.768;9.184;2023-10-08T08:06:51;1038.97;;;948.78;;
27740;SDS011;15134;48.768;9.184;2023-10-08T08:09:17;1040.97;;;950.80;;
27740;SDS011;15134;48.768;9.184;2023-10-08T08:11:45;1036.43;;;946.47;;
27740;SDS011;15134;48.768;9.184;2023-10-08T08:14:15;1042.50;;;952.72;;
27740;SDS011;15134;48.768;9.184;2023-10-08T08:16:49;1041.55;;;951.13;;
27740;SDS011;15134;48.768;9.184;2023-10-08T08:19:15;1038.35;;;949.28;;
27740;SDS011;15134;48.768;9.184;2023-10-08T08:21:42;1037.78;;;948.60;;
27740;SDS011;15134;48.768;9.184;2023-10-08T08:24:13;1043.68;;;955.17;;
27740;SDS011;15134;48.768;9.184;2023-10-08T08:26:50;1037.13;;;948.30;;
27740;SDS011;15134;48.768;9.184;2023-10-08T08:29:36;1044.50;;;955.60;;
27740;SDS011;15134;48.768;9.184;2023-10-08T08:32:11;1038.35;;;947.63;;
27740;SDS011;15134;48.768;9.184;2023-10-08T08:34:46;1033.57;;;943.90;;
27740;SDS011;15134;48.768;9.184;2023-10-08T08:37:16;1037.33;;;949.13;;
27740;SDS011;15134;48.768;9.184;2023-10-08T08:39:42;1055.82;;;965.90;;
27740;SDS011;15134;48.768;9.184;2023-10-08T08:42:08;1062.70;;;973.77;;
27740;SDS011;15134;48.768;9.184;2023-10-08T08:44:35;1071.68;;;981.67;;
27740;SDS011;15134;48.768;9.184;2023-10-08T08:47:13;1081.10;;;989.43;;
27740;SDS011;15134;48.768;9.184;2023-10-08T08:49:50;1084.03;;;994.88;;
27740;SDS011;15134;48.768;9.184;2023-10-08T08:52:20;1091.15;;;999.90;;
27740;SDS011;15134;48.768;9.184;2023-10-08T08:54:46;1093.73;;;999.90;;
27740;SDS011;15134;48.768;9.184;2023-10-08T08:57:12;1085.60;;;997.58;;
27740;SDS011;15134;48.768;9.184;2023-10-08T08:59:49;1074.93;;;987.55;;
27740;SDS011;15134;48.768;9.184;2023-10-08T09:02:19;1075.72;;;988.28;;
27740;SDS011;15134;48.768;9.184;2023-10-08T09:04:45;1085.37;;;997.20;;
27740;SDS011;15134;48.768;9.184;2023-10-08T09:07:13;1088.75;;;999.90;;
27740;SDS011;15134;48.768;9.184;2023-10-08T09:09:39;1101.75;;;999.90;;
27740;SDS011;15134;48.768;9.184;2023-10-08T09:12:05;1090.43;;;999.90;;
27740;SDS011;15134;48.768;9.184;2023-10-08T09:14:33;1094.72;;;999.90;;
27740;SDS011;15134;48.768;9.184;2023-10-08T09:16:59;1081.07;;;993.88;;
27740;SDS011;15134;48.768;9.184;2023-10-08T09:19:25;1090.13;;;999.90;;
27740;SDS011;15134;48.768;9.184;2023-10-08T09:22:02;1068.15;;;982.00;;
27740;SDS011;15134;48.768;9.184;2023-10-08T09:24:30;1073.28;;;986.65;;
27740;SDS011;15134;48.768;9.184;2023-10-08T09:27:01;1038.82;;;954.28;;
27740;SDS011;15134;48.768;9.184;2023-10-08T09:29:32;1050.50;;;965.03;;
27740;SDS011;15134;48.768;9.184;2023-10-08T09:32:03;1058.10;;;972.10;;
27740;SDS011;15134;48.768;9.184;2023-10-08T09:34:31;1038.63;;;953.70;;
27740;SDS011;15134;48.768;9.184;2023-10-08T09:36:58;1052.00;;;966.17;;
27740;SDS011;15134;48.768;9.184;2023-10-08T09:39:26;1063.28;;;976.72;;
27740;SDS011;15134;48.768;9.184;2023-10-08T09:42:00;1058.30;;;971.80;;
27740;SDS011;15134;48.768;9.184;2023-10-08T09:44:36;1046.53;;;960.87;;
27740;SDS011;15134;48.768;9.184;2023-10-08T09:47:03;1040.05;;;955.00;;
27740;SDS011;15134;48.768;9.184;2023-10-08T09:49:38;1056.05;;;969.63;;
27740;SDS011;15134;48.768;9.184;2023-10-08T09:52:07;1065.40;;;978.70;;
27740;SDS011;15134;48.768;9.184;2023-10-08T09:57:39;1076.22;;;988.53;;
27740;SDS011;15134;48.768;9.184;2023-10-08T10:00:05;1065.72;;;978.85;;
27740;SDS011;15134;48.768;9.184;2023-10-08T10:02:42;1063.33;;;976.47;;
27740;SDS011;15134;48.768;9.184;2023-10-08T10:05:12;1059.80;;;973.10;;
27740;SDS011;15134;48.768;9.184;2023-10-08T10:07:38;1054.95;;;968.58;;
27740;SDS011;15134;48.768;9.184;2023-10-08T10:13:00;1062.68;;;975.95;;
27740;SDS011;15134;48.768;9.184;2023-10-08T10:15:27;1055.32;;;969.08;;
27740;SDS011;15134;48.768;9.184;2023-10-08T10:17:59;1061.45;;;974.50;;
27740;SDS011;15134;48.768;9.184;2023-10-08T10:21:00;1041.05;;;955.58;;
27740;SDS011;15134;48.768;9.184;2023-10-08T10:23:52;1064.82;;;978.17;;
27740;SDS011;15134;48.768;9.184;2023-10-08T10:31:39;1057.75;;;971.45;;
27740;SDS011;15134;48.768;9.184;2023-10-08T10:34:13;1069.23;;;982.37;;
27740;SDS011;15134;48.768;9.184;2023-10-08T10:36:42;1045.25;;;959.80;;
27740;SDS011;15134;48.768;9.184;2023-10-08T10:39:09;1048.20;;;962.60;;
27740;SDS011;15134;48.768;9.184;2023-10-08T10:41:47;1046.47;;;960.92;;
27740;SDS011;15134;48.768;9.184;2023-10-08T10:44:16;1071.47;;;984.23;;
27740;SDS011;15134;48.768;9.184;2023-10-08T10:46:42;1077.88;;;990.08;;
27740;SDS011;15134;48.768;9.184;2023-10-08T10:49:16;1063.85;;;977.22;;
27740;SDS011;15134;48.768;9.184;2023-10-08T10:51:44;1063.73;;;977.03;;
27740;SDS011;15134;48.768;9.184;2023-10-08T10:54:12;1040.07;;;955.27;;
27740;SDS011;15134;48.768;9.184;2023-10-08T10:56:46;1052.93;;;967.30;;
27740;SDS011;15134;48.768;9.184;2023-10-08T10:59:13;1062.07;;;975.92;;
27740;SDS011;15134;48.768;9.184;2023-10-08T11:01:48;1073.50;;;986.58;;
27740;SDS011;15134;48.768;9.184;2023-10-08T11:04:33;1080.23;;;992.93;;
27740;SDS011;15134;48.768;9.184;2023-10-08T11:07:19;1088.57;;;999.90;;
27740;SDS011;15134;48.768;9.184;2023-10-08T11:09:49;1079.20;;;991.90;;
27740;SDS011;15134;48.768;9.184;2023-10-08T11:12:17;1065.18;;;978.63;;
27740;SDS011;15134;48.768;9.184;2023-10-08T11:14:48;1070.82;;;984.03;;
27740;SDS011;15134;48.768;9.184;2023-10-08T11:17:18;1068.45;;;981.88;;
27740;SDS011;15134;48.768;9.184;2023-10-08T11:19:49;1077.85;;;990.42;;
27740;SDS011;15134;48.768;9.184;2023-10-08T11:22:16;1069.60;;;982.65;;
27740;SDS011;15134;48.768;9.184;2023-10-08T11:24:44;1090.43;;;999.90;;
27740;SDS011;15134;48.768;9.184;2023-10-08T11:27:13;1051.90;;;966.05;;
27740;SDS011;15134;48.768;9.184;2023-10-08T11:29:45;1054.40;;;968.53;;
27740;SDS011;15134;48.768;9.184;2023-10-08T11:32:13;1060.25;;;973.85;;
27740;SDS011;15134;48.768;9.184;2023-10-08T11:34:47;1046.18;;;960.58;;
27740;SDS011;15134;48.768;9.184;2023-10-08T11:37:33;1051.33;;;965.53;;
27740;SDS011;15134;48.768;9.184;2023-10-08T11:39:59;1043.50;;;957.72;;
27740;SDS011;15134;48.768;9.184;2023-10-08T11:42:33;1047.30;;;961.15;;
27740;SDS011;15134;48.768;9.184;2023-10-08T11:44:59;1053.38;;;967.33;;
27740;SDS011;15134;48.768;9.184;2023-10-08T11:47:43;1032.55;;;947.53;;
27740;SDS011;15134;48.768;9.184;2023-10-08T11:50:11;1032.95;;;948.53;;
27740;SDS011;15134;48.768;9.184;2023-10-08T11:52:42;1032.47;;;948.30;;
27740;SDS011;15134;48.768;9.184;2023-10-08T11:55:08;1036.75;;;952.35;;
27740;SDS011;15134;48.768;9.184;2023-10-08T11:57:35;1037.65;;;952.85;;
27740;SDS011;15134;48.768;9.184;2023-10-08T12:00:07;1040.37;;;955.67;;
27740;SDS011;15134;48.768;9.184;2023-10-08T12:02:44;1018.17;;;935.08;;
27740;SDS011;15134;48.768;9.184;2023-10-08T12:05:11;1028.20;;;944.35;;
27740;SDS011;15134;48.768;9.184;2023-10-08T12:07:46;1032.82;;;947.50;;
27740;SDS011;15134;48.768;9.184;2023-10-08T12:10:13;1030.05;;;945.40;;
27740;SDS011;15134;48.768;9.184;2023-10-08T12:12:42;1015.35;;;931.30;;
27740;SDS011;15134;48.768;9.184;2023-10-08T12:15:11;1031.47;;;946.95;;
27740;SDS011;15134;48.768;9.184;2023-10-08T12:17:43;1021.90;;;937.92;;
27740;SDS011;15134;48.768;9.184;2023-10-08T12:20:09;1023.50;;;939.20;;
27740;SDS011;15134;48.768;9.184;2023-10-08T12:22:51;1019.67;;;935.63;;
27740;SDS011;15134;48.768;9.184;2023-10-08T12:25:16;1035.22;;;949.90;;
27740;SDS011;15134;48.768;9.184;2023-10-08T12:27:42;1033.90;;;948.77;;
27740;SDS011;15134;48.768;9.184;2023-10-08T12:30:08;1034.85;;;949.70;;
27740;SDS011;15134;48.768;9.184;2023-10-08T12:32:38;1050.55;;;963.78;;
27740;SDS011;15134;48.768;9.184;2023-10-08T12:35:10;1031.03;;;945.92;;
27740;SDS011;15134;48.768;9.184;2023-10-08T12:37:40;1030.93;;;945.67;;
27740;SDS011;15134;48.768;9.184;2023-10-08T12:40:09;1056.40;;;969.78;;
27740;SDS011;15134;48.768;9.184;2023-10-08T12:42:53;1024.97;;;940.33;;
27740;SDS011;15134;48.768;9.184;2023-10-08T12:45:19;1046.63;;;960.42;;
27740;SDS011;15134;48.768;9.184;2023-10-08T12:47:46;1042.38;;;956.47;;
27740;SDS011;15134;48.768;9.184;2023-10-08T12:50:14;1042.38;;;956.67;;
27740;SDS011;15134;48.768;9.184;2023-10-08T12:52:44;1046.20;;;960.22;;
27740;SDS011;15134;48.768;9.184;2023-10-08T12:55:19;1033.88;;;948.67;;
27740;SDS011;15134;48.768;9.184;2023-10-08T12:57:50;1027.82;;;943.03;;
27740;SDS011;15134;48.768;9.184;2023-10-08T13:00:23;1029.45;;;944.53;;
27740;SDS011;15134;48.768;9.184;2023-10-08T13:02:51;1050.07;;;963.72;;
27740;SDS011;15134;48.768;9.184;2023-10-08T13:05:20;1043.57;;;957.53;;
27740;SDS011;15134;48.768;9.184;2023-10-08T13:07:55;1035.47;;;950.13;;
27740;SDS011;15134;48.768;9.184;2023-10-08T13:10:22;1058.07;;;971.33;;
27740;SDS011;15134;48.768;9.184;2023-10-08T13:12:49;1046.88;;;960.65;;
27740;SDS011;15134;48.768;9.184;2023-10-08T13:15:15;1054.22;;;967.53;;
27740;SDS011;15134;48.768;9.184;2023-10-08T13:17:41;1054.10;;;967.22;;
27740;SDS011;15134;48.768;9.184;2023-10-08T13:20:13;1070.57;;;982.83;;
27740;SDS011;15134;48.768;9.184;2023-10-08T13:22:39;1071.18;;;983.53;;
27740;SDS011;15134;48.768;9.184;2023-10-08T13:25:06;1060.00;;;973.22;;
27740;SDS011;15134;48.768;9.184;2023-10-08T13:27:32;1066.07;;;978.67;;
27740;SDS011;15134;48.768;9.184;2023-10-08T13:29:58;1074.53;;;986.55;;
27740;SDS011;15134;48.768;9.184;2023-10-08T13:32:25;1051.53;;;965.35;;
27740;SDS011;15134;48.768;9.184;2023-10-08T13:34:51;1068.50;;;981.27;;
27740;SDS011;15134;48.768;9.184;2023-10-08T13:37:17;1086.90;;;998.20;;
27740;SDS011;15134;48.768;9.184;2023-10-08T13:39:42;1061.37;;;974.47;;
27740;SDS011;15134;48.768;9.184;2023-10-08T13:42:08;1092.57;;;999.90;;
27740;SDS011;15134;48.768;9.184;2023-10-08T13:44:39;1069.72;;;982.05;;
27740;SDS011;15134;48.768;9.184;2023-10-08T13:47:04;1055.00;;;968.37;;
27740;SDS011;15134;48.768;9.184;2023-10-08T13:49:31;1058.25;;;971.55;;
27740;SDS011;15134;48.768;9.184;2023-10-08T13:51:57;1057.63;;;970.78;;
27740;SDS011;15134;48.768;9.184;2023-10-08T13:54:24;1055.28;;;968.83;;
27740;SDS011;15134;48.768;9.184;2023-10-08T13:56:58;1045.95;;;960.00;;
27740;SDS011;15134;48.768;9.184;2023-10-08T13:59:26;1069.53;;;981.97;;
27740;SDS011;15134;48.768;9.184;2023-10-08T14:01:55;1052.15;;;965.72;;
27740;SDS011;15134;48.768;9.184;2023-10-08T14:04:21;1051.30;;;964.90;;
27740;SDS011;15134;48.768;9.184;2023-10-08T14:06:59;1070.28;;;982.70;;
27740;SDS011;15134;48.768;9.184;2023-10-08T14:09:27;1064.72;;;977.53;;
27740;SDS011;15134;48.768;9.184;2023-10-08T14:11:56;1061.13;;;974.20;;
27740;SDS011;15134;48.768;9.184;2023-10-08T14:14:22;1066.13;;;978.70;;
27740;SDS011;15134;48.768;9.184;2023-10-08T14:16:54;1049.13;;;963.10;;
27740;SDS011;15134;48.768;9.184;2023-10-08T14:19:25;1058.53;;;971.63;;
27740;SDS011;15134;48.768;9.184;2023-10-08T14:22:04;1071.33;;;983.87;;
27740;SDS011;15134;48.768;9.184;2023-10-08T14:24:33;1079.67;;;991.73;;
27740;SDS011;15134;48.768;9.184;2023-10-08T14:27:03;1061.88;;;975.17;;